createdAt,value
2018-03-29T00:00:41.572Z," 4.92"
2018-03-29T00:05:38.147Z," 4.94"
2018-03-29T00:10:37.430Z," 5.07"
2018-03-29T00:15:38.335Z," 4.94"
2018-03-29T00:20:34.579Z," 5.02"
2018-03-29T00:25:34.845Z," 5.05"
2018-03-29T00:30:31.548Z," 5.20"
2018-03-29T00:35:32.069Z," 5.14"
2018-03-29T00:40:31.630Z," 5.10"
2018-03-29T00:45:26.335Z," 5.25"
2018-03-29T00:50:22.995Z," 5.26"
2018-03-29T00:55:22.266Z," 5.21"
2018-03-29T01:00:18.718Z," 5.33"
2018-03-29T01:05:13.989Z," 5.18"
2018-03-29T01:10:11.184Z," 5.18"
2018-03-29T01:15:11.578Z," 5.23"
2018-03-29T01:20:07.452Z," 5.23"
2018-03-29T01:25:06.855Z," 5.29"
2018-03-29T01:30:06.027Z," 5.38"
2018-03-29T01:35:06.013Z," 5.25"
2018-03-29T01:40:01.702Z," 5.28"
2018-03-29T01:44:59.229Z," 5.23"
2018-03-29T01:49:58.427Z," 5.25"
2018-03-29T01:54:57.260Z," 5.21"
2018-03-29T01:59:52.849Z," 5.18"
2018-03-29T02:04:52.454Z," 5.20"
2018-03-29T02:09:51.072Z," 5.25"
2018-03-29T02:14:50.880Z," 5.17"
2018-03-29T02:19:46.699Z," 5.25"
2018-03-29T02:24:48.405Z," 5.17"
2018-03-29T02:29:44.101Z," 5.08"
2018-03-29T02:34:43.570Z," 5.17"
2018-03-29T02:39:42.320Z," 5.18"
2018-03-29T02:44:37.254Z," 5.14"
2018-03-29T02:49:33.349Z," 5.18"
2018-03-29T02:54:29.257Z," 5.18"
2018-03-29T02:59:26.075Z," 5.26"
2018-03-29T03:04:25.685Z," 5.20"
2018-03-29T03:09:25.294Z," 5.12"
2018-03-29T03:14:24.836Z," 5.21"
2018-03-29T03:19:25.190Z," 5.18"
2018-03-29T03:24:25.281Z," 5.21"
2018-03-29T03:29:21.676Z," 5.38"
2018-03-29T03:34:17.340Z," 5.21"
2018-03-29T03:39:17.945Z," 5.28"
2018-03-29T03:44:14.908Z," 5.21"
2018-03-29T03:49:15.368Z," 5.10"
2018-03-29T03:54:15.020Z," 5.05"
2018-03-29T03:59:10.504Z," 5.26"
2018-03-29T04:04:07.116Z," 5.28"
2018-03-29T04:09:03.966Z," 5.30"
2018-03-29T04:14:03.701Z," 5.30"
2018-03-29T04:19:03.462Z," 5.29"
2018-03-29T04:24:01.813Z," 5.15"
2018-03-29T04:28:56.824Z," 5.12"
2018-03-29T04:33:54.474Z," 5.12"
2018-03-29T04:38:55.232Z," 5.12"
2018-03-29T04:43:55.173Z," 5.05"
2018-03-29T04:48:53.770Z," 5.10"
2018-03-29T04:53:54.113Z," 5.10"
2018-03-29T04:58:52.653Z," 5.15"
2018-03-29T05:03:47.311Z," 5.04"
2018-03-29T05:08:48.314Z," 5.17"
2018-03-29T05:13:45.030Z," 5.18"
2018-03-29T05:18:41.376Z," 5.25"
2018-03-29T05:23:37.008Z," 5.21"
2018-03-29T05:28:37.801Z," 5.21"
2018-03-29T05:33:33.415Z," 5.26"
2018-03-29T05:38:29.963Z," 5.21"
2018-03-29T05:43:26.943Z," 5.23"
2018-03-29T05:48:26.421Z," 5.36"
2018-03-29T05:53:27.462Z," 5.35"
2018-03-29T05:58:26.903Z," 5.53"
2018-03-29T06:03:21.678Z," 5.54"
2018-03-29T06:08:21.582Z," 5.56"
2018-03-29T06:13:21.404Z," 5.61"
2018-03-29T06:18:21.585Z," 5.54"
2018-03-29T06:23:16.075Z," 5.62"
2018-03-29T06:28:17.462Z," 5.73"
2018-03-29T06:33:17.446Z," 5.80"
2018-03-29T06:38:17.327Z," 5.84"
2018-03-29T06:43:12.307Z," 5.99"
2018-03-29T06:48:13.349Z," 5.99"
2018-03-29T06:53:09.306Z," 6.16"
2018-03-29T06:58:09.461Z," 6.07"
2018-03-29T07:03:08.472Z," 6.12"
2018-03-29T07:08:08.620Z," 6.05"
2018-03-29T07:13:07.228Z," 6.01"
2018-03-29T07:18:06.811Z," 5.93"
2018-03-29T07:23:09.048Z," 6.02"
2018-03-29T07:28:10.052Z," 6.17"
2018-03-29T07:33:08.635Z," 6.17"
2018-03-29T07:38:09.576Z," 6.19"
2018-03-29T07:43:10.570Z," 6.27"
2018-03-29T07:48:09.498Z," 6.31"
2018-03-29T07:58:10.844Z," 6.69"
2018-03-29T08:03:08.578Z," 6.56"
2018-03-29T08:08:09.988Z," 6.74"
2018-03-29T08:13:09.925Z," 6.75"
2018-03-29T08:18:08.822Z," 6.81"
2018-03-29T08:23:08.791Z," 6.89"
2018-03-29T08:28:11.619Z," 6.99"
2018-03-29T08:33:11.055Z," 7.05"
2018-03-29T08:43:06.443Z," 7.17"
2018-03-29T08:48:06.417Z," 7.31"
2018-03-29T08:53:08.629Z," 7.61"
2018-03-29T08:58:07.441Z," 7.43"
2018-03-29T09:03:06.854Z," 7.47"
2018-03-29T09:13:09.149Z," 7.88"
2018-03-29T09:18:08.215Z," 7.88"
2018-03-29T09:23:03.469Z," 8.13"
2018-03-29T09:27:59.315Z," 8.20"
2018-03-29T09:33:00.117Z," 8.30"
2018-03-29T09:37:55.901Z," 8.23"
2018-03-29T09:47:56.387Z," 8.28"
2018-03-29T09:52:52.588Z," 8.15"
2018-03-29T09:57:53.200Z," 8.19"
2018-03-29T10:02:52.247Z," 8.34"
2018-03-29T10:07:51.194Z," 8.70"
2018-03-29T10:12:50.367Z," 8.88"
2018-03-29T10:17:45.459Z," 9.21"
2018-03-29T10:22:42.580Z," 9.32"
2018-03-29T10:27:39.603Z," 9.51"
2018-03-29T10:32:35.049Z," 9.44"
2018-03-29T10:37:32.131Z," 9.68"
2018-03-29T10:42:30.981Z," 9.18"
2018-03-29T10:47:27.493Z," 8.76"
2018-03-29T10:52:24.451Z," 8.67"
2018-03-29T10:57:24.812Z," 8.97"
2018-03-29T11:02:21.423Z," 9.83"
2018-03-29T11:07:22.221Z,10.74
2018-03-29T11:12:18.617Z,10.86
2018-03-29T11:17:22.428Z,10.86
2018-03-29T11:22:23.160Z,11.57
2018-03-29T11:27:23.535Z,11.11
2018-03-29T11:32:17.741Z,11.07
2018-03-29T11:37:18.442Z,11.08
2018-03-29T11:42:18.163Z,11.32
2018-03-29T11:47:15.868Z,12.09
2018-03-29T11:52:11.617Z,12.21
2018-03-29T11:57:13.501Z,12.27
2018-03-29T12:02:09.744Z,12.58
2018-03-29T12:07:12.006Z,13.16
2018-03-29T12:12:11.069Z,13.18
2018-03-29T12:17:10.107Z,12.83
2018-03-29T12:22:05.024Z,13.03
2018-03-29T12:27:06.726Z,13.12
2018-03-29T12:32:04.860Z,12.28
2018-03-29T12:37:03.684Z,12.39
2018-03-29T12:41:58.285Z,12.49
2018-03-29T12:46:58.096Z,11.75
2018-03-29T12:51:58.117Z,11.52
2018-03-29T12:56:52.055Z,11.25
2018-03-29T13:01:48.518Z,11.22
2018-03-29T13:06:47.489Z,10.97
2018-03-29T13:11:45.768Z,10.15
2018-03-29T13:16:41.677Z," 9.36"
2018-03-29T13:21:41.455Z," 9.32"
2018-03-29T13:26:36.452Z," 9.55"
2018-03-29T13:31:35.804Z," 9.46"
2018-03-29T13:36:30.647Z," 9.39"
2018-03-29T13:41:27.440Z," 8.89"
2018-03-29T13:46:22.872Z," 8.92"
2018-03-29T13:51:23.853Z," 9.18"
2018-03-29T13:56:26.307Z," 9.47"
2018-03-29T14:01:22.906Z," 9.48"
2018-03-29T14:06:23.647Z," 9.82"
2018-03-29T14:11:18.619Z,10.01
2018-03-29T14:16:19.300Z,10.19
2018-03-29T14:21:18.313Z,10.34
2018-03-29T14:26:17.068Z,10.31
2018-03-29T14:31:13.381Z,10.40
2018-03-29T14:36:13.860Z,10.22
2018-03-29T14:41:14.425Z,10.42
2018-03-29T14:46:10.480Z,10.33
2018-03-29T14:51:07.023Z,10.35
2018-03-29T14:56:07.236Z,10.28
2018-03-29T15:01:06.767Z," 9.82"
2018-03-29T15:06:05.239Z," 9.72"
2018-03-29T15:11:00.931Z," 9.32"
2018-03-29T15:15:57.331Z," 8.91"
2018-03-29T15:20:52.449Z," 8.56"
2018-03-29T15:25:51.734Z," 8.61"
2018-03-29T15:30:46.540Z," 8.53"
2018-03-29T15:35:43.482Z," 8.37"
2018-03-29T15:40:39.982Z," 8.64"
2018-03-29T15:45:39.662Z," 8.71"
2018-03-29T15:50:40.084Z," 8.81"
2018-03-29T15:55:39.057Z," 8.95"
2018-03-29T16:00:34.560Z," 8.81"
2018-03-29T16:05:31.206Z," 8.55"
2018-03-29T16:10:30.297Z," 8.61"
2018-03-29T16:15:25.674Z," 8.45"
2018-03-29T16:20:25.345Z," 8.52"
2018-03-29T16:25:24.831Z," 8.63"
2018-03-29T16:30:19.569Z," 8.52"
2018-03-29T16:35:19.442Z," 8.30"
2018-03-29T16:40:15.364Z," 8.27"
2018-03-29T16:45:10.943Z," 8.34"
2018-03-29T16:50:07.723Z," 8.27"
2018-03-29T16:55:03.133Z," 8.24"
2018-03-29T17:00:05.377Z," 8.19"
2018-03-29T17:05:00.727Z," 8.13"
2018-03-29T17:09:57.389Z," 8.15"
2018-03-29T17:14:52.797Z," 8.16"
2018-03-29T17:19:48.453Z," 8.00"
2018-03-29T17:24:44.271Z," 7.88"
2018-03-29T17:29:43.966Z," 7.77"
2018-03-29T17:34:38.756Z," 7.67"
2018-03-29T17:39:34.470Z," 7.67"
2018-03-29T17:44:34.191Z," 7.58"
2018-03-29T17:49:29.971Z," 7.61"
2018-03-29T17:54:26.727Z," 7.58"
2018-03-29T17:59:26.131Z," 7.53"
2018-03-29T18:04:21.701Z," 7.50"
2018-03-29T18:09:21.933Z," 7.43"
2018-03-29T18:14:20.681Z," 7.36"
2018-03-29T18:19:20.656Z," 7.33"
2018-03-29T18:24:19.323Z," 7.17"
2018-03-29T18:29:19.523Z," 7.15"
2018-03-29T18:34:19.025Z," 7.15"
2018-03-29T18:39:14.661Z," 7.13"
2018-03-29T18:44:10.184Z," 7.21"
2018-03-29T18:49:05.785Z," 6.99"
2018-03-29T18:54:01.475Z," 6.78"
2018-03-29T18:58:57.144Z," 6.82"
2018-03-29T19:03:52.924Z," 6.84"
2018-03-29T19:08:53.436Z," 6.99"
2018-03-29T19:13:48.278Z," 7.02"
2018-03-29T19:18:48.029Z," 6.77"
2018-03-29T19:23:46.333Z," 6.82"
2018-03-29T19:28:43.196Z," 6.72"
2018-03-29T19:33:43.208Z," 6.59"
2018-03-29T19:38:43.762Z," 6.60"
2018-03-29T19:43:38.227Z," 6.59"
2018-03-29T19:48:33.719Z," 6.38"
2018-03-29T19:53:33.343Z," 6.46"
2018-03-29T19:58:29.141Z," 6.12"
2018-03-29T20:03:25.487Z," 6.09"
2018-03-29T20:08:20.802Z," 6.16"
2018-03-29T20:13:16.536Z," 6.11"
2018-03-29T20:18:12.994Z," 5.99"
2018-03-29T20:23:08.918Z," 6.08"
2018-03-29T20:28:04.537Z," 5.97"
2018-03-29T20:33:01.094Z," 5.94"
2018-03-29T20:38:01.907Z," 5.89"
2018-03-29T20:42:56.567Z," 5.89"
2018-03-29T20:47:56.124Z," 5.66"
2018-03-29T20:52:50.541Z," 5.73"
2018-03-29T20:57:50.315Z," 5.72"
2018-03-29T21:02:46.147Z," 5.25"
2018-03-29T21:07:42.575Z," 5.44"
2018-03-29T21:12:38.423Z," 5.32"
2018-03-29T21:17:39.526Z," 5.53"
2018-03-29T21:22:35.169Z," 5.50"
2018-03-29T21:27:30.696Z," 5.20"
2018-03-29T21:32:27.575Z," 5.25"
2018-03-29T21:37:26.867Z," 5.17"
2018-03-29T21:42:22.448Z," 5.23"
2018-03-29T21:47:18.314Z," 5.21"
2018-03-29T21:52:15.507Z," 5.39"
2018-03-29T21:57:11.277Z," 5.25"
2018-03-29T22:02:08.148Z," 5.15"
2018-03-29T22:07:03.610Z," 5.23"
2018-03-29T22:12:03.357Z," 5.35"
2018-03-29T22:17:03.158Z," 5.43"
2018-03-29T22:21:57.855Z," 5.36"
2018-03-29T22:26:53.758Z," 5.26"
2018-03-29T22:31:53.222Z," 5.18"
2018-03-29T22:36:52.131Z," 5.21"
2018-03-29T22:41:47.079Z," 5.30"
2018-03-29T22:46:43.056Z," 5.30"
2018-03-29T22:51:38.678Z," 5.12"
2018-03-29T22:56:38.562Z," 4.63"
2018-03-29T23:01:33.095Z," 4.56"
2018-03-29T23:06:28.478Z," 4.12"
2018-03-29T23:11:28.117Z," 4.02"
2018-03-29T23:16:24.001Z," 4.05"
2018-03-29T23:21:20.443Z," 4.05"
2018-03-29T23:26:16.485Z," 4.06"
2018-03-29T23:31:17.037Z," 4.06"
2018-03-29T23:36:15.460Z," 3.88"
2018-03-29T23:41:10.482Z," 3.80"
2018-03-29T23:46:07.494Z," 3.63"
2018-03-29T23:51:04.124Z," 3.86"
2018-03-29T23:55:59.549Z," 3.78"
